METAR Data
IDs: Format: Raw Decoded Include TAF

Data at: 2049 UTC 01 Dec 2021

METAR for:KAOH (Lima/Allen Cnty, OH, US)
Text:KAOH 012034Z AUTO 16010KT 6SM -RA BR SCT007 BKN050 OVC060 06/04 A2986 RMK AO2 RAB05 PRESFR P0000 T00610044
Temperature: 6.1°C ( 43°F)
Dewpoint: 4.4°C ( 40°F) [RH = 89%]
Pressure (altimeter):29.86 inches Hg (1011.3 mb)
Winds:from the SSE (160 degrees) at 12 MPH (10 knots; 5.1 m/s)
Visibility: 6 sm ( 10 km)
Ceiling:5000 feet AGL
Clouds: scattered clouds at 700 feet AGL, broken clouds at 5000 feet AGL, overcast cloud deck at 6000 feet AGL
Weather:-RA BR (light rain, mist)
QC Flag:automated observation with no human augmentation